createdAt,value
2023-05-01T00:01:56.547Z,0.75
2023-05-01T00:04:26.018Z,0.88
2023-05-01T00:06:55.224Z,0.99
2023-05-01T00:09:24.068Z,1.07
2023-05-01T00:11:52.829Z,1.10
2023-05-01T00:14:21.704Z,1.13
2023-05-01T00:16:50.582Z,1.23
2023-05-01T00:19:19.665Z,1.33
2023-05-01T00:21:48.935Z,1.51
2023-05-01T00:24:17.808Z,1.65
2023-05-01T00:26:47.204Z,1.72
2023-05-01T00:29:16.351Z,1.82
2023-05-01T00:31:46.080Z,1.97
2023-05-01T00:34:14.920Z,2.24
2023-05-01T00:36:44.081Z,2.39
2023-05-01T00:39:13.217Z,2.48
2023-05-01T00:41:42.063Z,2.53
2023-05-01T00:44:11.274Z,2.65
2023-05-01T00:46:40.183Z,2.65
2023-05-01T00:49:09.350Z,2.96
2023-05-01T00:51:38.586Z,3.22
2023-05-01T00:54:07.558Z,3.48
2023-05-01T00:56:36.690Z,3.53
2023-05-01T00:59:06.291Z,3.57
2023-05-01T01:01:36.315Z,3.57
2023-05-01T01:04:06.591Z,3.61
2023-05-01T01:07:02.123Z,3.61
2023-05-01T01:10:18.939Z,3.55
2023-05-01T01:13:12.820Z,3.65
2023-05-01T01:15:51.386Z,3.78
2023-05-01T01:18:42.916Z,4.36
2023-05-01T01:21:17.994Z,5.17
2023-05-01T01:24:08.718Z,5.08
2023-05-01T01:26:53.123Z,5.84
2023-05-01T01:29:37.419Z,6.51
2023-05-01T01:32:32.249Z,7.53
2023-05-01T01:35:05.707Z,7.32
2023-05-01T01:37:43.734Z,6.58
2023-05-01T01:40:23.164Z,5.82
2023-05-01T01:43:06.207Z,5.41
2023-05-01T01:45:44.223Z,5.38
2023-05-01T01:48:18.960Z,5.94
2023-05-01T01:50:48.371Z,7.32
2023-05-01T01:53:19.436Z,9.22
2023-05-01T01:55:49.836Z,9.20
2023-05-01T01:58:25.471Z,8.41
2023-05-01T02:00:59.105Z,7.51
2023-05-01T02:03:28.484Z,7.59
2023-05-01T02:05:59.296Z,7.52
2023-05-01T02:08:31.485Z,6.97
2023-05-01T02:11:02.376Z,6.35
2023-05-01T02:13:34.569Z,5.95
2023-05-01T02:16:25.981Z,7.06
2023-05-01T02:18:56.623Z,8.03
2023-05-01T02:21:27.116Z,7.79
2023-05-01T02:23:57.824Z,7.82
2023-05-01T02:26:29.399Z,8.54
2023-05-01T02:28:59.051Z,9.24
2023-05-01T02:31:28.514Z,10.20
2023-05-01T02:33:57.433Z,10.56
2023-05-01T02:36:26.337Z,10.31
2023-05-01T02:38:55.969Z,10.26
2023-05-01T02:41:28.736Z,9.86
2023-05-01T02:44:04.856Z,8.44
2023-05-01T02:46:38.026Z,7.11
2023-05-01T02:49:07.910Z,6.56
2023-05-01T02:51:38.077Z,6.48
2023-05-01T02:54:07.538Z,6.50
2023-05-01T02:56:36.892Z,6.12
2023-05-01T02:59:05.743Z,5.79
2023-05-01T03:01:35.646Z,5.44
2023-05-01T03:04:05.222Z,5.55
2023-05-01T03:06:34.211Z,5.60
2023-05-01T03:09:03.584Z,5.53
2023-05-01T03:11:32.352Z,5.53
2023-05-01T03:14:01.307Z,5.23
2023-05-01T03:16:30.199Z,4.89
2023-05-01T03:18:59.056Z,4.69
2023-05-01T03:21:27.978Z,4.74
2023-05-01T03:23:56.921Z,4.82
2023-05-01T03:26:26.268Z,4.96
2023-05-01T03:28:55.760Z,4.90
2023-05-01T03:31:25.416Z,4.67
2023-05-01T03:33:55.867Z,4.42
2023-05-01T03:36:25.649Z,4.17
2023-05-01T03:38:55.715Z,4.13
2023-05-01T03:41:47.390Z,4.36
2023-05-01T03:44:27.609Z,4.97
2023-05-01T03:46:56.512Z,6.67
2023-05-01T03:49:30.006Z,8.94
2023-05-01T03:51:58.882Z,10.13
2023-05-01T03:54:28.651Z,9.55
2023-05-01T03:57:17.646Z,8.83
2023-05-01T03:59:47.375Z,8.15
2023-05-01T04:02:17.430Z,7.36
2023-05-01T04:04:48.799Z,6.76
2023-05-01T04:07:17.696Z,6.17
2023-05-01T04:09:48.976Z,5.55
2023-05-01T04:12:17.861Z,5.20
2023-05-01T04:14:47.589Z,5.03
2023-05-01T04:17:17.152Z,4.71
2023-05-01T04:19:48.347Z,4.81
2023-05-01T04:22:17.402Z,5.13
2023-05-01T04:24:46.473Z,5.27
2023-05-01T04:27:15.399Z,5.05
2023-05-01T04:29:44.503Z,4.62
2023-05-01T04:32:14.288Z,4.31
2023-05-01T04:34:43.799Z,4.21
2023-05-01T04:37:12.942Z,4.33
2023-05-01T04:39:42.132Z,4.47
2023-05-01T04:42:11.240Z,4.64
2023-05-01T04:44:40.226Z,4.50
2023-05-01T04:47:09.502Z,4.34
2023-05-01T04:49:38.386Z,4.36
2023-05-01T04:52:07.647Z,4.38
2023-05-01T04:54:51.674Z,4.69
2023-05-01T04:57:22.570Z,4.68
2023-05-01T04:59:52.101Z,4.61
2023-05-01T05:02:21.792Z,4.65
2023-05-01T05:04:51.057Z,4.53
2023-05-01T05:07:19.892Z,4.59
2023-05-01T05:10:07.416Z,4.76
2023-05-01T05:12:37.544Z,5.07
2023-05-01T05:15:07.762Z,5.50
2023-05-01T05:17:37.175Z,5.76
2023-05-01T05:20:06.900Z,5.95
2023-05-01T05:22:38.696Z,6.35
2023-05-01T05:25:25.436Z,7.26
2023-05-01T05:27:54.771Z,8.03
2023-05-01T05:30:23.505Z,8.19
2023-05-01T05:32:55.503Z,8.42
2023-05-01T05:35:24.463Z,8.73
2023-05-01T05:37:53.882Z,8.80
2023-05-01T05:40:22.808Z,8.74
2023-05-01T05:42:57.706Z,8.21
2023-05-01T05:45:28.584Z,7.56
2023-05-01T05:47:58.366Z,7.11
2023-05-01T05:50:28.977Z,6.87
2023-05-01T05:52:57.941Z,6.80
2023-05-01T05:55:27.395Z,6.75
2023-05-01T05:58:04.575Z,6.46
2023-05-01T06:00:34.748Z,6.15
2023-05-01T06:03:07.710Z,5.99
2023-05-01T06:05:37.960Z,5.93
2023-05-01T06:08:06.859Z,5.65
2023-05-01T06:10:35.830Z,5.47
2023-05-01T06:13:13.689Z,5.47
2023-05-01T06:15:49.533Z,5.51
2023-05-01T06:18:18.671Z,5.55
2023-05-01T06:20:48.438Z,5.60
2023-05-01T06:23:17.284Z,5.89
2023-05-01T06:26:10.678Z,6.31
2023-05-01T06:28:39.641Z,7.67
2023-05-01T06:31:08.813Z,10.45
2023-05-01T06:33:42.887Z,12.59
2023-05-01T06:36:34.256Z,13.56
2023-05-01T06:39:03.992Z,12.88
2023-05-01T06:41:34.990Z,11.64
2023-05-01T06:44:03.938Z,10.15
2023-05-01T06:46:32.912Z,8.90
2023-05-01T06:49:02.372Z,8.17
2023-05-01T06:51:32.046Z,7.84
2023-05-01T06:54:00.807Z,7.50
2023-05-01T06:56:29.823Z,7.22
2023-05-01T06:58:58.793Z,6.89
2023-05-01T07:01:28.667Z,6.62
2023-05-01T07:03:58.034Z,6.50
2023-05-01T07:06:28.162Z,6.43
2023-05-01T07:08:56.984Z,6.62
2023-05-01T07:11:27.500Z,7.85
2023-05-01T07:13:56.399Z,8.89
2023-05-01T07:16:25.461Z,10.11
2023-05-01T07:18:54.364Z,11.74
2023-05-01T07:21:23.494Z,12.31
2023-05-01T07:23:52.509Z,12.07
2023-05-01T07:26:21.786Z,11.52
2023-05-01T07:28:50.579Z,10.75
2023-05-01T07:31:19.496Z,9.57
2023-05-01T07:33:48.674Z,8.40
2023-05-01T07:36:19.103Z,7.79
2023-05-01T07:38:48.798Z,7.42
2023-05-01T07:41:17.699Z,7.11
2023-05-01T07:43:46.557Z,6.82
2023-05-01T07:46:16.350Z,6.54
2023-05-01T07:48:45.140Z,6.30
2023-05-01T07:51:14.155Z,6.15
2023-05-01T07:53:44.836Z,6.18
2023-05-01T07:56:14.008Z,6.13
2023-05-01T07:58:43.255Z,6.22
2023-05-01T08:01:12.728Z,6.34
2023-05-01T08:03:41.961Z,6.33
2023-05-01T08:06:10.896Z,6.24
2023-05-01T08:08:39.896Z,6.21
2023-05-01T08:11:09.659Z,6.22
2023-05-01T08:13:38.590Z,6.48
2023-05-01T08:16:07.774Z,6.70
2023-05-01T08:18:36.608Z,6.67
2023-05-01T08:21:05.557Z,6.32
2023-05-01T08:23:34.366Z,5.90
2023-05-01T08:26:03.544Z,5.65
2023-05-01T08:28:35.781Z,5.44
2023-05-01T08:31:04.800Z,5.27
2023-05-01T08:33:34.527Z,5.28
2023-05-01T08:36:03.656Z,5.13
2023-05-01T08:38:32.499Z,5.41
2023-05-01T08:41:02.332Z,5.90
2023-05-01T08:43:34.441Z,6.22
2023-05-01T08:46:08.630Z,6.32
2023-05-01T08:48:39.190Z,6.32
2023-05-01T08:51:10.776Z,6.34
2023-05-01T08:53:41.782Z,6.42
2023-05-01T08:56:14.299Z,6.54
2023-05-01T08:58:46.546Z,6.47
2023-05-01T09:01:18.089Z,6.27
2023-05-01T09:03:48.905Z,6.21
2023-05-01T09:06:18.177Z,6.23
2023-05-01T09:08:47.139Z,6.45
2023-05-01T09:11:16.057Z,6.51
2023-05-01T09:13:45.097Z,6.43
2023-05-01T09:16:14.154Z,6.34
2023-05-01T09:18:43.247Z,6.34
2023-05-01T09:21:12.983Z,6.29
2023-05-01T09:23:42.051Z,6.29
2023-05-01T09:26:11.170Z,6.35
2023-05-01T09:28:49.692Z,6.30
2023-05-01T09:31:33.357Z,6.07
2023-05-01T09:34:04.136Z,5.85
2023-05-01T09:36:35.055Z,5.58
2023-05-01T09:39:04.755Z,5.50
2023-05-01T09:41:34.133Z,5.47
2023-05-01T09:44:03.268Z,5.44
2023-05-01T09:46:44.393Z,5.42
2023-05-01T09:49:13.499Z,5.29
2023-05-01T09:51:43.170Z,5.27
2023-05-01T09:54:22.236Z,5.29
2023-05-01T09:56:51.205Z,5.28
2023-05-01T09:59:21.985Z,5.12
2023-05-01T10:01:52.892Z,4.89
2023-05-01T10:04:34.703Z,4.77
2023-05-01T10:07:14.096Z,4.71
2023-05-01T10:09:43.048Z,4.72
2023-05-01T10:12:23.733Z,4.82
2023-05-01T10:14:57.217Z,4.85
2023-05-01T10:17:26.062Z,4.80
2023-05-01T10:19:56.246Z,4.65
2023-05-01T10:22:25.324Z,4.56
2023-05-01T10:24:54.350Z,4.53
2023-05-01T10:27:25.348Z,4.60
2023-05-01T10:29:55.295Z,4.66
2023-05-01T10:32:24.644Z,4.55
2023-05-01T10:34:59.598Z,4.40
2023-05-01T10:37:46.874Z,4.29
2023-05-01T10:40:45.547Z,4.18
2023-05-01T10:43:29.322Z,3.95
2023-05-01T10:46:11.068Z,3.58
2023-05-01T10:48:40.108Z,3.18
2023-05-01T10:51:24.339Z,2.95
2023-05-01T10:54:13.247Z,3.08
2023-05-01T10:56:44.183Z,3.38
2023-05-01T10:59:13.570Z,3.67
2023-05-01T11:01:46.323Z,3.87
2023-05-01T11:04:27.786Z,4.01
2023-05-01T11:07:04.220Z,4.07
2023-05-01T11:09:39.644Z,4.09
2023-05-01T11:12:10.623Z,4.02
2023-05-01T11:14:54.904Z,4.04
2023-05-01T11:17:42.691Z,4.06
2023-05-01T11:20:38.170Z,3.84
2023-05-01T11:23:07.632Z,3.68
2023-05-01T11:25:36.504Z,3.68
2023-05-01T11:28:07.324Z,3.72
2023-05-01T11:30:42.879Z,3.71
2023-05-01T11:33:11.908Z,3.63
2023-05-01T11:35:41.735Z,3.55
2023-05-01T11:38:19.632Z,3.51
2023-05-01T11:40:56.088Z,3.41
2023-05-01T11:43:24.984Z,3.24
2023-05-01T11:46:03.072Z,3.13
2023-05-01T11:48:33.494Z,3.10
2023-05-01T11:51:13.444Z,3.12
2023-05-01T11:53:42.563Z,3.09
2023-05-01T11:56:26.418Z,3.02
2023-05-01T11:58:58.236Z,2.96
2023-05-01T12:01:39.131Z,3.01
2023-05-01T12:04:09.202Z,3.07
2023-05-01T12:06:46.340Z,3.00
2023-05-01T12:09:19.668Z,2.93
2023-05-01T12:11:53.404Z,2.85
2023-05-01T12:14:24.894Z,2.81
2023-05-01T12:16:54.107Z,2.70
2023-05-01T12:19:23.959Z,2.55
2023-05-01T12:22:07.300Z,2.40
2023-05-01T12:24:36.977Z,2.23
2023-05-01T12:27:07.766Z,2.06
2023-05-01T12:29:43.296Z,1.93
2023-05-01T12:32:12.256Z,1.83
2023-05-01T12:34:42.388Z,1.78
2023-05-01T12:37:11.866Z,1.72
2023-05-01T12:39:43.114Z,1.67
2023-05-01T12:42:17.535Z,1.60
2023-05-01T12:44:46.757Z,1.54
2023-05-01T12:47:15.960Z,1.54
2023-05-01T12:49:45.032Z,1.57
2023-05-01T12:52:13.954Z,1.53
2023-05-01T12:54:44.582Z,1.55
2023-05-01T12:57:15.484Z,1.57
2023-05-01T12:59:46.369Z,1.58
2023-05-01T13:02:19.179Z,1.54
2023-05-01T13:04:51.804Z,1.52
2023-05-01T13:07:20.721Z,1.49
2023-05-01T13:09:58.093Z,1.41
2023-05-01T13:12:28.365Z,1.38
2023-05-01T13:14:58.083Z,1.33
2023-05-01T13:17:29.323Z,1.32
2023-05-01T13:20:00.754Z,1.32
2023-05-01T13:22:38.652Z,1.27
2023-05-01T13:25:21.049Z,1.22
2023-05-01T13:27:52.922Z,1.16
2023-05-01T13:30:31.998Z,1.17
2023-05-01T13:33:02.426Z,1.17
2023-05-01T13:35:32.351Z,1.16
2023-05-01T13:38:04.321Z,1.16
2023-05-01T13:40:37.151Z,1.19
2023-05-01T13:43:06.182Z,1.24
2023-05-01T13:45:35.246Z,1.20
2023-05-01T13:48:06.148Z,1.15
2023-05-01T13:50:35.570Z,1.13
2023-05-01T13:53:07.601Z,0.99
2023-05-01T13:55:39.188Z,0.84
2023-05-01T13:58:08.082Z,0.65
2023-05-01T14:00:40.014Z,0.48
2023-05-01T14:03:11.393Z,0.33
2023-05-01T14:05:41.259Z,0.16
2023-05-01T14:08:11.354Z,0.05
2023-05-01T14:10:40.194Z,-0.07
2023-05-01T14:13:09.223Z,-0.15
2023-05-01T14:15:44.388Z,-0.26
2023-05-01T14:18:18.064Z,-0.39
2023-05-01T14:20:49.887Z,-0.41
2023-05-01T14:23:21.072Z,-0.49
2023-05-01T14:25:50.338Z,-0.55
2023-05-01T14:28:19.484Z,-0.63
2023-05-01T14:30:50.078Z,-0.70
2023-05-01T14:33:19.172Z,-0.76
2023-05-01T14:35:53.034Z,-0.80
2023-05-01T14:38:23.255Z,-0.86
2023-05-01T14:40:52.730Z,-0.91
2023-05-01T14:43:24.897Z,-0.96
2023-05-01T14:45:55.958Z,-1.00
2023-05-01T14:48:26.846Z,-1.03
2023-05-01T14:50:55.766Z,-1.03
2023-05-01T14:53:24.555Z,-1.08
2023-05-01T14:55:54.774Z,-1.09
2023-05-01T14:58:23.733Z,-1.13
2023-05-01T15:00:53.503Z,-1.13
2023-05-01T15:03:22.884Z,-1.15
2023-05-01T15:05:51.875Z,-1.21
2023-05-01T15:08:20.736Z,-1.22
2023-05-01T15:10:49.801Z,-1.24
2023-05-01T15:13:18.684Z,-1.25
2023-05-01T15:15:47.536Z,-1.23
2023-05-01T15:18:16.464Z,-1.24
2023-05-01T15:20:45.485Z,-1.16
2023-05-01T15:23:14.446Z,-1.14
2023-05-01T15:25:48.234Z,-1.14
2023-05-01T15:28:17.264Z,-1.14
2023-05-01T15:30:47.548Z,-1.13
2023-05-01T15:33:18.984Z,-1.06
2023-05-01T15:35:49.337Z,-1.03
2023-05-01T15:38:18.365Z,-0.95
2023-05-01T15:40:47.202Z,-0.91
2023-05-01T15:43:16.109Z,-0.84
2023-05-01T15:45:45.405Z,-0.74
2023-05-01T15:48:14.516Z,-0.72
2023-05-01T15:50:43.502Z,-0.66
2023-05-01T15:53:12.319Z,-0.65
2023-05-01T15:55:41.241Z,-0.64
2023-05-01T15:58:10.033Z,-0.63
2023-05-01T16:00:40.402Z,-0.58
2023-05-01T16:03:09.624Z,-0.55
2023-05-01T16:05:39.669Z,-0.52
2023-05-01T16:08:08.931Z,-0.47
2023-05-01T16:10:38.377Z,-0.44
2023-05-01T16:13:07.711Z,-0.41
2023-05-01T16:15:38.179Z,-0.46
2023-05-01T16:18:07.216Z,-0.54
2023-05-01T16:20:41.849Z,-0.61
2023-05-01T16:23:11.457Z,-0.57
2023-05-01T16:25:43.800Z,-0.57
2023-05-01T16:28:13.706Z,-0.58
2023-05-01T16:30:46.481Z,-0.59
2023-05-01T16:33:23.921Z,-0.57
2023-05-01T16:35:52.938Z,-0.54
2023-05-01T16:38:21.776Z,-0.52
2023-05-01T16:40:50.696Z,-0.50
2023-05-01T16:43:21.810Z,-0.48
2023-05-01T16:45:50.725Z,-0.44
2023-05-01T16:48:24.018Z,-0.46
2023-05-01T16:50:53.070Z,-0.45
2023-05-01T16:53:22.798Z,-0.48
2023-05-01T16:55:51.613Z,-0.57
2023-05-01T16:58:21.116Z,-0.69
2023-05-01T17:00:50.709Z,-0.72
2023-05-01T17:03:20.125Z,-0.71
2023-05-01T17:05:49.044Z,-0.70
2023-05-01T17:08:17.839Z,-0.69
2023-05-01T17:10:46.813Z,-0.73
2023-05-01T17:13:16.344Z,-0.80
2023-05-01T17:15:45.247Z,-0.88
2023-05-01T17:18:14.167Z,-0.91
2023-05-01T17:20:43.183Z,-0.94
2023-05-01T17:23:12.070Z,-0.96
2023-05-01T17:25:40.961Z,-1.02
2023-05-01T17:28:09.822Z,-1.05
2023-05-01T17:30:38.710Z,-1.07
2023-05-01T17:33:07.653Z,-1.02
2023-05-01T17:35:36.580Z,-0.99
2023-05-01T17:38:05.431Z,-0.95
2023-05-01T17:40:34.392Z,-0.90
2023-05-01T17:43:03.890Z,-0.82
2023-05-01T17:45:32.847Z,-0.78
2023-05-01T17:48:01.826Z,-0.76
2023-05-01T17:50:30.649Z,-0.71
2023-05-01T17:52:59.362Z,-0.69
2023-05-01T17:55:28.535Z,-0.62
2023-05-01T17:57:57.323Z,-0.56
2023-05-01T18:00:28.278Z,-0.57
2023-05-01T18:02:57.393Z,-0.53
2023-05-01T18:05:26.744Z,-0.47
2023-05-01T18:07:55.493Z,-0.46
2023-05-01T18:10:25.336Z,-0.46
2023-05-01T18:12:54.825Z,-0.46
2023-05-01T18:15:23.626Z,-0.44
2023-05-01T18:17:52.641Z,-0.39
2023-05-01T18:20:21.983Z,-0.39
2023-05-01T18:22:51.174Z,-0.38
2023-05-01T18:25:20.571Z,-0.37
2023-05-01T18:27:49.821Z,-0.35
2023-05-01T18:30:18.670Z,-0.34
2023-05-01T18:32:48.884Z,-0.36
2023-05-01T18:35:19.251Z,-0.39
2023-05-01T18:37:48.236Z,-0.41
2023-05-01T18:40:17.237Z,-0.44
2023-05-01T18:42:46.159Z,-0.47
2023-05-01T18:45:15.197Z,-0.46
2023-05-01T18:47:44.153Z,-0.42
2023-05-01T18:50:13.858Z,-0.47
2023-05-01T18:52:42.974Z,-0.49
2023-05-01T18:55:12.228Z,-0.55
2023-05-01T18:57:44.717Z,-0.53
2023-05-01T19:00:16.758Z,-0.53
2023-05-01T19:02:52.112Z,-0.56
2023-05-01T19:05:22.989Z,-0.59
2023-05-01T19:07:55.603Z,-0.59
2023-05-01T19:10:24.484Z,-0.54
2023-05-01T19:12:53.303Z,-0.46
2023-05-01T19:15:22.152Z,-0.45
2023-05-01T19:17:51.647Z,-0.49
2023-05-01T19:20:20.692Z,-0.60
2023-05-01T19:22:49.525Z,-0.71
2023-05-01T19:25:20.005Z,-0.87
2023-05-01T19:27:49.651Z,-1.03
2023-05-01T19:30:18.580Z,-1.18
2023-05-01T19:32:47.790Z,-1.31
2023-05-01T19:35:16.792Z,-1.46
2023-05-01T19:37:45.582Z,-1.56
2023-05-01T19:40:14.461Z,-1.62
2023-05-01T19:42:43.422Z,-1.65
2023-05-01T19:45:12.334Z,-1.64
2023-05-01T19:47:41.273Z,-1.63
2023-05-01T19:50:10.468Z,-1.60
2023-05-01T19:52:39.304Z,-1.58
2023-05-01T19:55:08.726Z,-1.58
2023-05-01T19:57:37.726Z,-1.60
2023-05-01T20:00:08.692Z,-1.61
2023-05-01T20:02:42.073Z,-1.54
2023-05-01T20:05:13.602Z,-1.46
2023-05-01T20:07:42.481Z,-1.29
2023-05-01T20:10:11.560Z,-1.15
2023-05-01T20:12:40.601Z,-1.00
2023-05-01T20:15:10.021Z,-0.86
2023-05-01T20:17:38.951Z,-0.74
2023-05-01T20:20:08.241Z,-0.65
2023-05-01T20:22:37.180Z,-0.61
2023-05-01T20:25:09.375Z,-0.62
2023-05-01T20:27:39.616Z,-0.61
2023-05-01T20:30:13.215Z,-0.59
2023-05-01T20:32:44.653Z,-0.58
2023-05-01T20:35:13.596Z,-0.59
2023-05-01T20:37:42.679Z,-0.54
2023-05-01T20:40:12.776Z,-0.57
2023-05-01T20:42:43.527Z,-0.56
2023-05-01T20:45:12.361Z,-0.54
2023-05-01T20:47:41.363Z,-0.57
2023-05-01T20:50:10.668Z,-0.54
2023-05-01T20:52:39.499Z,-0.56
2023-05-01T20:55:08.764Z,-0.63
2023-05-01T20:57:37.977Z,-0.74
2023-05-01T21:00:09.010Z,-0.80
2023-05-01T21:02:39.361Z,-0.86
2023-05-01T21:05:12.891Z,-0.88
2023-05-01T21:07:41.899Z,-0.95
2023-05-01T21:10:12.068Z,-1.07
2023-05-01T21:12:41.484Z,-1.17
2023-05-01T21:15:12.064Z,-1.30
2023-05-01T21:17:43.768Z,-1.47
2023-05-01T21:20:17.398Z,-1.60
2023-05-01T21:22:49.632Z,-1.68
2023-05-01T21:25:27.454Z,-1.79
2023-05-01T21:27:56.807Z,-1.85
2023-05-01T21:30:34.949Z,-1.91
2023-05-01T21:33:06.964Z,-1.97
2023-05-01T21:35:35.967Z,-2.01
2023-05-01T21:38:05.871Z,-2.07
2023-05-01T21:40:38.228Z,-2.09
2023-05-01T21:43:07.881Z,-2.08
2023-05-01T21:45:40.938Z,-2.00
2023-05-01T21:48:10.536Z,-1.94
2023-05-01T21:50:39.464Z,-1.90
2023-05-01T21:53:08.449Z,-1.81
2023-05-01T21:55:37.302Z,-1.72
2023-05-01T21:58:06.240Z,-1.63
2023-05-01T22:00:36.157Z,-1.52
2023-05-01T22:03:08.044Z,-1.39
2023-05-01T22:05:41.443Z,-1.21
2023-05-01T22:08:10.297Z,-1.09
2023-05-01T22:10:39.110Z,-1.09
2023-05-01T22:13:08.028Z,-1.06
2023-05-01T22:15:37.036Z,-1.08
2023-05-01T22:18:06.094Z,-1.23
2023-05-01T22:20:35.063Z,-1.11
2023-05-01T22:23:04.000Z,-1.13
2023-05-01T22:25:32.817Z,-1.09
2023-05-01T22:28:04.822Z,-1.03
2023-05-01T22:30:35.401Z,-0.98
2023-05-01T22:33:04.578Z,-0.94
2023-05-01T22:35:33.526Z,-0.98
2023-05-01T22:38:02.460Z,-1.02
2023-05-01T22:40:33.722Z,-0.86
2023-05-01T22:43:05.360Z,-0.71
2023-05-01T22:45:34.217Z,-0.60
2023-05-01T22:48:03.200Z,-0.56
2023-05-01T22:50:32.392Z,-0.62
2023-05-01T22:53:01.308Z,-0.73
2023-05-01T22:55:30.479Z,-0.75
2023-05-01T22:57:59.333Z,-0.72
2023-05-01T23:00:42.872Z,-0.61
2023-05-01T23:03:12.707Z,-0.55
2023-05-01T23:05:41.712Z,-0.57
2023-05-01T23:08:10.768Z,-0.57
2023-05-01T23:10:43.394Z,-0.57
2023-05-01T23:13:22.635Z,-0.54
2023-05-01T23:15:52.888Z,-0.51
2023-05-01T23:18:25.452Z,-0.49
2023-05-01T23:20:56.102Z,-0.47
2023-05-01T23:23:31.812Z,-0.45
2023-05-01T23:26:00.902Z,-0.42
2023-05-01T23:28:30.249Z,-0.40
2023-05-01T23:31:01.824Z,-0.39
2023-05-01T23:33:39.959Z,-0.40
2023-05-01T23:36:13.320Z,-0.38
2023-05-01T23:38:42.488Z,-0.33
2023-05-01T23:41:11.726Z,-0.27
2023-05-01T23:43:40.821Z,-0.19
2023-05-01T23:46:09.799Z,-0.12
2023-05-01T23:48:38.864Z,-0.10
2023-05-01T23:51:07.821Z,-0.03
2023-05-01T23:53:36.763Z,-0.01
2023-05-01T23:56:05.798Z,0.03
2023-05-01T23:58:34.776Z,0.03
